首页
METAR-TAF:

METAR-TAF

机场 :

奥珀卢萨斯, 路易斯安那州, 美国

纬度: 30-33-30N, 经度: 092-05-58W, 海拔: 23米

当前天气观测

该预报发布于34分钟前的20:35 UTC
风速9节,风向东转东北,有时为17节阵风
温度 32°C
湿度 52%
气压 1009 hPa
能見度: 16.1公里
天空无云

METAR: KOPL 062035Z AUTO 06009G17KT 10SM CLR 32/21 A2980 RMK AO2 T03200208

时间: 16:09 (21:09 UTC)


TAF: 丢失

超过4000个机场的气象观测和天气预报(METAR&TAF报告)。

可查询的气象台以黄色和红色小点在地图上表示。

将鼠标移到小点上方,可查看气象台名称。

然后点击查看天气观测和预报。

如需切换地图:点击带黑十字的绿色按钮放大地图;点击带横线的绿色按钮缩小地图;或者点击绿色箭头查看邻近地区的地图。


METAR-TAF: